Time;durP1;ratioP1;P1;durP2;ratioP2;P2;SDS_P1;SDS_P2;PMS_P1;PMS_P2;Temp;Humidity;BMP_temperature;BMP_pressure;BME280_temperature;BME280_humidity;BME280_pressure;Samples;Min_cycle;Max_cycle;Signal;HPM_P1;HPM_P2
2023/06/25 00:00:16;;;;;;;6.60;5.00;;;;;;;14.99;98.92;97107.20;112360;1238;22586;-87
2023/06/25 00:03:05;;;;;;;6.80;5.40;;;;;;;14.98;98.55;97106.34;112273;1243;127494;-87
2023/06/25 00:05:36;;;;;;;6.90;5.60;;;;;;;14.95;98.24;97103.38;112374;1242;25243;-87
2023/06/25 00:08:06;;;;;;;8.90;6.60;;;;;;;14.92;98.29;97103.24;112334;1243;22561;-88
2023/06/25 00:10:35;;;;;;;7.30;5.80;;;;;;;14.90;98.32;97104.03;112327;1243;25336;-87
2023/06/25 00:13:05;;;;;;;10.20;6.80;;;;;;;14.88;98.40;97104.55;112035;1242;56070;-87
2023/06/25 00:15:38;;;;;;;8.30;6.70;;;;;;;14.86;98.41;97104.69;112354;1242;24034;-87
2023/06/25 00:18:08;;;;;;;7.90;7.00;;;;;;;14.83;98.46;97105.10;112319;1242;22513;-87
2023/06/25 00:20:40;;;;;;;6.80;5.60;;;;;;;14.80;98.38;97099.19;112327;1243;22506;-87
2023/06/25 00:23:12;;;;;;;8.30;6.80;;;;;;;14.77;98.34;97100.98;112070;1242;22524;-87
2023/06/25 00:25:43;;;;;;;9.90;7.20;;;;;;;14.74;98.41;97099.11;112313;1242;22558;-87
2023/06/25 00:28:15;;;;;;;8.90;7.60;;;;;;;14.72;98.49;97095.86;112324;1243;22499;-88
2023/06/25 00:30:44;;;;;;;7.50;6.30;;;;;;;14.69;98.67;97095.70;112324;1242;22520;-87
2023/06/25 00:33:14;;;;;;;9.10;6.90;;;;;;;14.65;98.59;97092.29;112193;1244;22518;-87
2023/06/25 00:36:09;;;;;;;8.00;5.60;;;;;;;14.63;98.75;97094.23;112175;1244;22567;-87
2023/06/25 00:38:39;;;;;;;8.80;6.30;;;;;;;14.60;98.57;97092.15;112189;1243;22511;-87
2023/06/25 00:41:16;;;;;;;8.70;6.40;;;;;;;14.56;98.60;97090.45;111986;1242;37618;-88
2023/06/25 00:43:46;;;;;;;7.60;6.00;;;;;;;14.56;98.71;97090.20;112366;1242;22523;-87
2023/06/25 00:46:17;;;;;;;9.40;6.20;;;;;;;14.55;98.83;97086.67;112313;1242;24428;-87
2023/06/25 00:48:47;;;;;;;6.20;5.60;;;;;;;14.54;98.75;97087.92;112338;1242;22551;-87
2023/06/25 00:51:27;;;;;;;6.30;5.60;;;;;;;14.54;98.65;97088.63;112283;1242;77312;-87
2023/06/25 00:53:58;;;;;;;7.60;5.90;;;;;;;14.51;98.59;97085.84;112347;1242;22509;-87
2023/06/25 00:56:29;;;;;;;7.60;6.10;;;;;;;14.49;98.51;97088.58;112345;1242;22519;-87
2023/06/25 00:59:02;;;;;;;6.90;5.20;;;;;;;14.48;98.44;97086.73;112339;1242;23798;-87
2023/06/25 01:01:40;;;;;;;7.00;5.80;;;;;;;14.44;98.28;97088.87;112296;1242;31358;-87
2023/06/25 01:04:13;;;;;;;6.40;5.40;;;;;;;14.44;98.25;97092.13;112334;1242;22580;-87
2023/06/25 01:06:51;;;;;;;8.80;5.70;;;;;;;14.40;98.05;97088.96;112315;1242;22518;-87
2023/06/25 01:09:23;;;;;;;7.20;5.90;;;;;;;14.39;98.10;97092.84;112331;1242;22526;-87
2023/06/25 01:12:03;;;;;;;10.50;7.00;;;;;;;14.37;98.09;97091.37;112307;1242;64982;-87
2023/06/25 01:14:32;;;;;;;6.00;5.20;;;;;;;14.37;98.26;97088.86;112320;1242;22513;-87
2023/06/25 01:17:05;;;;;;;9.80;6.30;;;;;;;14.37;98.19;97085.13;112339;1242;22611;-87
2023/06/25 01:19:40;;;;;;;;;;;;;;;14.37;98.14;97080.54;112336;1243;22830;-87
2023/06/25 01:22:09;;;;;;;7.20;6.00;;;;;;;14.36;98.04;97080.45;112280;1242;69643;-87
2023/06/25 01:24:38;;;;;;;8.90;5.90;;;;;;;14.34;98.11;97079.39;112020;1242;22511;-87
2023/06/25 01:27:07;;;;;;;7.10;5.90;;;;;;;14.34;98.23;97076.89;112345;1228;22531;-88
2023/06/25 01:29:35;;;;;;;7.20;6.20;;;;;;;14.35;98.13;97075.86;112332;1242;22505;-87
2023/06/25 01:32:06;;;;;;;8.60;7.60;;;;;;;14.35;98.21;97072.98;112301;1242;38511;-87
2023/06/25 01:34:36;;;;;;;8.60;7.40;;;;;;;14.33;98.28;97071.30;112342;1242;25369;-87
2023/06/25 01:37:06;;;;;;;;;;;;;;;14.32;98.40;97070.15;112391;1242;22595;-87
2023/06/25 01:39:34;;;;;;;8.10;6.20;;;;;;;14.30;98.60;97072.20;112349;1235;22505;-88
2023/06/25 01:42:04;;;;;;;8.20;6.20;;;;;;;14.29;98.52;97071.68;112334;1240;33951;-88
2023/06/25 01:44:32;;;;;;;;;;;;;;;14.30;98.53;97072.59;112331;1242;22476;-87
2023/06/25 01:47:00;;;;;;;9.40;7.50;;;;;;;14.27;98.48;97070.13;112357;1242;24201;-87
2023/06/25 01:49:30;;;;;;;8.10;7.00;;;;;;;14.25;98.60;97067.21;112349;1242;22534;-88
2023/06/25 01:51:59;;;;;;;9.00;7.30;;;;;;;14.23;98.69;97064.48;110786;1242;2058828;-88
2023/06/25 01:54:28;;;;;;;8.60;7.00;;;;;;;14.22;98.72;97064.23;112324;1242;25274;-87
2023/06/25 01:56:59;;;;;;;10.90;8.30;;;;;;;14.20;98.67;97061.89;112352;1242;24238;-87
2023/06/25 01:59:34;;;;;;;10.20;8.80;;;;;;;14.15;98.73;97058.14;112326;1242;24453;-87
2023/06/25 02:02:03;;;;;;;11.30;9.30;;;;;;;14.13;98.89;97062.28;112244;1242;96742;-87
2023/06/25 02:04:34;;;;;;;13.40;11.00;;;;;;;14.11;99.05;97060.49;112325;1242;22509;-87
2023/06/25 02:07:02;;;;;;;11.50;10.20;;;;;;;14.10;99.22;97061.05;112318;1242;23251;-87
2023/06/25 02:09:36;;;;;;;16.50;11.30;;;;;;;14.09;99.28;97062.51;112329;1242;22635;-87
2023/06/25 02:12:06;;;;;;;12.00;10.60;;;;;;;14.09;99.53;97059.15;112274;1242;81383;-87
2023/06/25 02:14:35;;;;;;;13.20;10.90;;;;;;;14.08;99.46;97061.98;112320;1242;22493;-87
2023/06/25 02:17:06;;;;;;;12.40;10.60;;;;;;;14.07;99.59;97058.89;112336;1242;22500;-87
2023/06/25 02:19:34;;;;;;;13.30;11.00;;;;;;;14.06;99.76;97059.02;112357;1242;22499;-86
2023/06/25 02:22:04;;;;;;;12.50;11.20;;;;;;;14.05;99.82;97054.81;112318;1242;36182;-86
2023/06/25 02:24:36;;;;;;;14.10;11.90;;;;;;;14.03;99.84;97054.96;112323;1242;22645;-87
2023/06/25 02:27:05;;;;;;;13.10;10.90;;;;;;;14.00;99.84;97054.63;112323;1242;22506;-87
2023/06/25 02:29:34;;;;;;;12.90;10.60;;;;;;;13.98;99.97;97053.66;112339;1242;22510;-87
2023/06/25 02:32:02;;;;;;;12.80;11.10;;;;;;;13.97;100.00;97054.20;112304;1242;56867;-87
2023/06/25 02:34:34;;;;;;;12.10;10.80;;;;;;;13.93;99.92;97049.36;112018;1242;25196;-87
2023/06/25 02:37:18;;;;;;;13.70;9.90;;;;;;;13.94;100.00;97052.75;112363;1242;22614;-87
2023/06/25 02:39:47;;;;;;;11.50;9.90;;;;;;;13.96;100.00;97052.20;112050;1242;22522;-87
2023/06/25 02:42:15;;;;;;;11.50;9.00;;;;;;;13.98;100.00;97052.43;112346;1242;36773;-87
2023/06/25 02:44:51;;;;;;;11.10;9.20;;;;;;;13.98;100.00;97051.84;112349;1242;22499;-88
2023/06/25 02:47:29;;;;;;;14.00;10.20;;;;;;;13.97;100.00;97054.58;112357;1242;24188;-87
2023/06/25 02:50:06;;;;;;;13.10;9.80;;;;;;;13.96;100.00;97050.86;112352;1242;22600;-87
2023/06/25 02:52:37;;;;;;;12.70;10.10;;;;;;;13.95;100.00;97049.13;112200;1243;33564;-87
2023/06/25 02:55:10;;;;;;;13.90;11.20;;;;;;;13.91;100.00;97048.67;112189;1243;24446;-87
2023/06/25 02:57:45;;;;;;;12.50;10.70;;;;;;;13.90;100.00;97051.13;112190;1243;22515;-86
2023/06/25 03:00:19;;;;;;;12.70;11.00;;;;;;;13.89;100.00;97052.92;112173;1243;22535;-87
2023/06/25 03:02:49;;;;;;;13.50;11.40;;;;;;;13.87;100.00;97050.12;112167;1243;42801;-85
2023/06/25 03:05:19;;;;;;;13.80;11.60;;;;;;;13.85;100.00;97050.91;112169;1240;22500;-86
2023/06/25 03:08:07;;;;;;;15.30;12.20;;;;;;;13.84;100.00;97050.06;112155;1243;24188;-86
2023/06/25 03:10:39;;;;;;;13.90;11.00;;;;;;;13.84;100.00;97049.00;112186;1243;22532;-86
2023/06/25 03:13:14;;;;;;;13.80;11.50;;;;;;;13.83;100.00;97047.68;112126;1239;86139;-86
2023/06/25 03:15:51;;;;;;;15.50;11.70;;;;;;;13.83;100.00;97042.89;112202;1243;22505;-86
2023/06/25 03:18:22;;;;;;;13.40;11.60;;;;;;;13.83;100.00;97046.61;112206;1243;22492;-86
2023/06/25 03:20:55;;;;;;;12.50;10.10;;;;;;;13.84;100.00;97046.87;111624;1243;3058559;-86
2023/06/25 03:23:24;;;;;;;13.80;11.70;;;;;;;13.85;100.00;97045.40;112192;1243;22514;-86
2023/06/25 03:25:56;;;;;;;12.30;10.90;;;;;;;13.88;100.00;97047.17;112163;1243;22541;-86
2023/06/25 03:28:30;;;;;;;12.80;11.10;;;;;;;13.90;100.00;97040.52;112189;1243;22550;-86
2023/06/25 03:31:09;;;;;;;13.60;11.20;;;;;;;13.94;100.00;97042.04;112139;1243;48333;-86
2023/06/25 03:33:38;;;;;;;13.40;12.00;;;;;;;13.97;100.00;97043.60;112176;1243;22639;-86
2023/06/25 03:36:09;;;;;;;14.80;12.40;;;;;;;14.02;100.00;97042.29;112186;1240;22528;-86
2023/06/25 03:38:42;;;;;;;15.10;12.40;;;;;;;14.06;100.00;97040.15;112170;1240;22556;-86
2023/06/25 03:41:12;;;;;;;14.90;12.40;;;;;;;14.06;100.00;97045.73;112142;1243;33889;-86
2023/06/25 03:43:44;;;;;;;18.00;12.90;;;;;;;14.06;100.00;97043.02;112202;1243;22525;-86
2023/06/25 03:46:15;;;;;;;14.70;12.60;;;;;;;14.06;100.00;97047.27;112182;1243;22502;-86
2023/06/25 03:48:51;;;;;;;13.90;11.80;;;;;;;14.02;100.00;97043.40;112196;1243;22531;-87
2023/06/25 03:51:20;;;;;;;13.30;11.50;;;;;;;13.98;100.00;97037.29;112150;1243;37404;-86
2023/06/25 03:53:51;;;;;;;12.10;10.60;;;;;;;13.95;100.00;97036.80;112194;1243;22527;-85
2023/06/25 03:56:20;;;;;;;13.90;11.50;;;;;;;13.94;100.00;97038.52;112168;1243;22498;-85
2023/06/25 03:58:51;;;;;;;;;;;;;;;13.93;100.00;97032.83;112200;1242;24244;-83
2023/06/25 04:01:21;;;;;;;14.00;11.40;;;;;;;13.95;100.00;97037.17;112126;1243;65566;-83
2023/06/25 04:03:50;;;;;;;12.30;10.90;;;;;;;13.96;100.00;97040.67;112177;1243;22517;-83
2023/06/25 04:06:18;;;;;;;12.30;10.40;;;;;;;13.96;100.00;97040.24;112172;1243;22492;-83
2023/06/25 04:08:47;;;;;;;12.50;10.70;;;;;;;13.97;100.00;97039.06;112150;1243;22517;-85
2023/06/25 04:11:16;;;;;;;11.60;9.50;;;;;;;13.99;100.00;97042.02;110844;1238;1759230;-84
2023/06/25 04:13:44;;;;;;;11.40;9.90;;;;;;;14.01;100.00;97035.76;112225;1243;22883;-84
2023/06/25 04:16:13;;;;;;;13.90;10.40;;;;;;;14.04;100.00;97036.27;112210;1243;22502;-85
2023/06/25 04:18:43;;;;;;;13.10;10.20;;;;;;;14.10;100.00;97035.78;112211;1243;25373;-84
2023/06/25 04:21:12;;;;;;;12.10;10.10;;;;;;;14.16;100.00;97035.52;112054;1243;154673;-85
2023/06/25 04:23:41;;;;;;;11.80;9.50;;;;;;;14.23;100.00;97033.12;112225;1241;22522;-85
2023/06/25 04:26:10;;;;;;;11.00;9.80;;;;;;;14.29;100.00;97032.64;112182;1243;22517;-85
2023/06/25 04:28:38;;;;;;;;;;;;;;;14.34;100.00;97031.65;112218;1243;22477;-85
2023/06/25 04:31:07;;;;;;;12.60;10.00;;;;;;;14.38;100.00;97035.18;112170;1243;22573;-85
2023/06/25 04:33:41;;;;;;;10.60;9.10;;;;;;;14.44;100.00;97033.76;112217;1243;26565;-84
2023/06/25 04:36:11;;;;;;;12.10;8.80;;;;;;;14.52;100.00;97034.59;112200;1240;22601;-85
2023/06/25 04:38:41;;;;;;;11.30;9.20;;;;;;;14.60;100.00;97034.94;112163;1243;22529;-85
2023/06/25 04:41:08;;;;;;;;;;;;;;;14.69;100.00;97033.99;112089;1243;125575;-84
2023/06/25 04:43:38;;;;;;;10.90;9.10;;;;;;;14.80;100.00;97031.98;112205;1243;22516;-85
2023/06/25 04:46:07;;;;;;;10.30;8.70;;;;;;;14.91;100.00;97030.07;112198;1243;22488;-84
2023/06/25 04:48:38;;;;;;;10.10;8.00;;;;;;;15.01;100.00;97024.91;112200;1232;22614;-85
2023/06/25 04:51:07;;;;;;;10.90;7.90;;;;;;;15.11;100.00;97022.21;112160;1243;23469;-84
2023/06/25 04:53:35;;;;;;;10.10;8.20;;;;;;;15.23;100.00;97028.13;112200;1243;25233;-85
2023/06/25 04:56:05;;;;;;;8.10;7.20;;;;;;;15.34;100.00;97028.59;112176;1243;22488;-85
2023/06/25 04:58:35;;;;;;;9.40;7.00;;;;;;;15.38;100.00;97021.13;112182;1243;23205;-85
2023/06/25 05:01:04;;;;;;;8.60;7.60;;;;;;;15.42;99.96;97022.33;112154;1243;44058;-85
2023/06/25 05:03:33;;;;;;;9.30;7.60;;;;;;;15.43;99.69;97019.58;112222;1240;22483;-85
2023/06/25 05:06:02;;;;;;;11.20;8.20;;;;;;;15.44;99.36;97022.44;112172;1243;22514;-86
2023/06/25 05:08:30;;;;;;;11.50;8.10;;;;;;;15.47;99.31;97022.40;112215;1243;22529;-85
2023/06/25 05:10:59;;;;;;;8.60;7.20;;;;;;;15.58;99.54;97019.04;112208;1243;22618;-85
2023/06/25 05:13:30;;;;;;;11.20;8.30;;;;;;;15.67;99.36;97017.68;112185;1233;22509;-85
2023/06/25 05:15:59;;;;;;;10.20;8.30;;;;;;;15.82;99.59;97019.06;112176;1239;22540;-85
2023/06/25 05:18:28;;;;;;;9.60;7.70;;;;;;;15.96;99.36;97019.86;112141;1243;22512;-85
2023/06/25 05:20:57;;;;;;;9.90;8.40;;;;;;;16.08;99.00;97019.12;112184;1240;22491;-86
2023/06/25 05:23:26;;;;;;;10.70;7.00;;;;;;;16.24;98.95;97022.52;112062;1243;25512;-86
2023/06/25 05:25:56;;;;;;;9.20;7.20;;;;;;;16.60;99.43;97018.93;112174;1243;22982;-87
2023/06/25 05:28:25;;;;;;;9.70;8.10;;;;;;;17.49;100.00;97018.29;112205;1243;22519;-87
2023/06/25 05:30:54;;;;;;;8.50;6.90;;;;;;;18.52;100.00;97019.90;112203;1243;22563;-86
2023/06/25 05:33:23;;;;;;;10.70;7.50;;;;;;;19.41;98.13;97016.94;112183;1243;53422;-86
2023/06/25 05:35:52;;;;;;;8.90;7.00;;;;;;;20.15;95.41;97015.20;112084;1243;25180;-85
2023/06/25 05:38:21;;;;;;;9.30;6.80;;;;;;;20.81;93.03;97012.92;112217;1237;22499;-86
2023/06/25 05:40:50;;;;;;;8.30;6.80;;;;;;;21.40;91.39;97014.59;112220;1243;22509;-86
2023/06/25 05:43:18;;;;;;;8.80;7.00;;;;;;;21.76;88.55;97008.81;112193;1243;34409;-86
2023/06/25 05:45:47;;;;;;;8.90;7.10;;;;;;;22.01;86.82;97009.81;112179;1243;22510;-86
2023/06/25 05:48:16;;;;;;;7.90;7.10;;;;;;;22.25;85.09;97004.56;112189;1243;24189;-86
2023/06/25 05:50:45;;;;;;;8.50;7.10;;;;;;;22.55;84.32;97005.66;112082;1243;22509;-87
2023/06/25 05:53:14;;;;;;;8.50;7.70;;;;;;;23.17;84.21;97006.86;112196;1243;27824;-87
2023/06/25 05:55:43;;;;;;;9.50;7.00;;;;;;;23.51;80.95;97003.20;112191;1243;22531;-86
2023/06/25 05:58:13;;;;;;;8.50;7.30;;;;;;;23.73;79.10;97005.40;112219;1243;22658;-87
2023/06/25 06:00:40;;;;;;;;;;;;;;;24.11;79.21;97001.86;112205;1240;24178;-87
2023/06/25 06:03:09;;;;;;;8.50;7.60;;;;;;;24.77;78.63;96999.88;112188;1243;70579;-87
2023/06/25 06:05:39;;;;;;;9.00;7.00;;;;;;;25.27;75.97;97000.04;112236;1243;22521;-87
2023/06/25 06:08:09;;;;;;;8.20;7.20;;;;;;;25.48;73.98;96997.25;112196;1243;22531;-87
2023/06/25 06:10:39;;;;;;;7.70;6.90;;;;;;;25.72;72.76;96996.23;112192;1237;22513;-87
2023/06/25 06:13:09;;;;;;;8.50;7.30;;;;;;;25.81;71.09;96999.84;112147;1243;52749;-87
2023/06/25 06:15:37;;;;;;;9.00;7.70;;;;;;;26.03;70.36;96996.55;112189;1243;22521;-87
2023/06/25 06:18:06;;;;;;;8.50;7.20;;;;;;;26.27;69.19;96998.00;112195;1240;24435;-87
2023/06/25 06:20:34;;;;;;;8.50;7.50;;;;;;;26.38;67.81;96994.58;112179;1243;25419;-86
2023/06/25 06:23:05;;;;;;;7.00;6.30;;;;;;;26.47;66.86;96992.98;112197;1243;22733;-86
2023/06/25 06:25:34;;;;;;;8.30;7.30;;;;;;;26.53;65.76;96993.66;112198;1243;22519;-87
2023/06/25 06:28:03;;;;;;;7.90;7.10;;;;;;;26.82;65.97;96985.70;112221;1241;22537;-87
2023/06/25 06:30:33;;;;;;;9.20;7.30;;;;;;;27.04;64.84;96990.81;112182;1243;22704;-88
2023/06/25 06:33:05;;;;;;;10.00;7.30;;;;;;;27.30;64.69;96994.14;112212;1243;23088;-87
2023/06/25 06:35:35;;;;;;;9.00;6.90;;;;;;;27.33;63.64;96997.27;112200;1243;22479;-87
2023/06/25 06:38:05;;;;;;;9.20;7.00;;;;;;;27.35;63.42;96999.47;112160;1243;23365;-87
2023/06/25 06:40:34;;;;;;;7.80;6.70;;;;;;;27.45;62.99;96996.98;112198;1243;25245;-88
2023/06/25 06:43:03;;;;;;;8.50;7.50;;;;;;;27.62;62.60;96994.14;112160;1241;50757;-86
2023/06/25 06:45:32;;;;;;;8.50;7.00;;;;;;;27.63;61.56;96992.73;112196;1243;24430;-85
2023/06/25 06:48:01;;;;;;;8.40;7.30;;;;;;;27.42;60.73;96990.11;112180;1243;25388;-86
2023/06/25 06:50:30;;;;;;;10.10;7.30;;;;;;;27.25;60.56;96994.80;112181;1239;25285;-87
2023/06/25 06:52:59;;;;;;;8.30;6.90;;;;;;;27.23;60.46;96997.98;112194;1243;23724;-87
2023/06/25 06:55:28;;;;;;;8.60;7.40;;;;;;;27.23;60.32;96993.93;112204;1243;22503;-87
2023/06/25 06:57:57;;;;;;;8.10;7.30;;;;;;;27.33;60.26;96994.31;112231;1243;22515;-87
2023/06/25 07:00:26;;;;;;;9.90;7.80;;;;;;;27.41;59.94;96993.66;112188;1243;22510;-88
2023/06/25 07:02:57;;;;;;;8.40;7.40;;;;;;;27.41;59.98;96991.02;110613;1243;2028702;-87
2023/06/25 07:05:26;;;;;;;7.80;6.80;;;;;;;27.34;59.11;96985.52;112192;1243;22502;-88
2023/06/25 07:07:55;;;;;;;10.50;7.90;;;;;;;27.18;58.85;96982.46;112220;1243;25280;-88
2023/06/25 07:10:25;;;;;;;9.20;6.90;;;;;;;27.02;58.70;96986.21;112202;1243;22560;-86
2023/06/25 07:12:56;;;;;;;8.60;6.60;;;;;;;27.03;58.89;96981.73;112200;1243;91409;-85
2023/06/25 07:15:25;;;;;;;8.10;7.00;;;;;;;27.16;59.20;96986.33;112260;1236;22811;-85
2023/06/25 07:17:54;;;;;;;9.50;6.70;;;;;;;27.16;58.23;96985.64;112216;1240;22511;-84
2023/06/25 07:20:22;;;;;;;;;;;;;;;26.88;57.77;96984.05;112224;1243;22475;-84
2023/06/25 07:22:59;;;;;;;9.30;7.60;;;;;;;26.58;57.72;96985.24;112188;1243;49795;-83
2023/06/25 07:25:32;;;;;;;9.80;7.60;;;;;;;26.47;57.77;96981.26;112201;1243;22505;-83
2023/06/25 07:28:05;;;;;;;8.80;7.80;;;;;;;26.44;58.03;96980.49;112229;1243;22505;-83
2023/06/25 07:30:39;;;;;;;9.10;7.90;;;;;;;26.45;57.80;96980.59;112215;1243;22505;-83
2023/06/25 07:33:15;;;;;;;8.00;7.20;;;;;;;26.43;57.58;96974.43;110680;1243;2028288;-86
2023/06/25 07:35:44;;;;;;;8.50;7.40;;;;;;;26.43;57.73;96971.16;112211;1243;22576;-85
2023/06/25 07:38:17;;;;;;;10.10;7.60;;;;;;;26.54;58.02;96969.43;112380;1236;22635;-86
2023/06/25 07:40:54;;;;;;;9.80;8.10;;;;;;;26.55;57.58;96968.66;112309;1243;25264;-86
2023/06/25 07:43:28;;;;;;;9.20;8.00;;;;;;;26.42;57.16;96970.45;112187;1240;91571;-86
2023/06/25 07:46:00;;;;;;;8.20;7.40;;;;;;;26.46;57.72;96965.23;112189;1243;25212;-85
2023/06/25 07:48:35;;;;;;;8.10;7.20;;;;;;;26.50;57.47;96962.72;112233;1243;22529;-86
2023/06/25 07:51:05;;;;;;;8.50;7.60;;;;;;;26.56;57.81;96961.38;112275;1243;24693;-87
2023/06/25 07:53:37;;;;;;;8.60;7.20;;;;;;;26.65;57.69;96962.55;112218;1243;54133;-86
2023/06/25 07:56:13;;;;;;;10.30;7.80;;;;;;;26.61;57.07;96962.35;112249;1243;22519;-87
2023/06/25 07:58:51;;;;;;;8.70;7.50;;;;;;;26.53;56.84;96963.98;112239;1243;22486;-86
2023/06/25 08:01:23;;;;;;;8.10;7.30;;;;;;;26.50;56.70;96965.20;112327;1240;56950;-86
2023/06/25 08:03:52;;;;;;;8.60;7.70;;;;;;;26.41;56.51;96965.48;112349;1243;22506;-87
2023/06/25 08:06:26;;;;;;;9.30;7.10;;;;;;;26.29;56.68;96962.06;112323;1243;23338;-87
2023/06/25 08:08:56;;;;;;;7.80;6.90;;;;;;;26.30;57.00;96959.45;112304;1240;22530;-87
2023/06/25 08:11:24;;;;;;;;;;;;;;;26.48;57.06;96959.19;110752;1243;1991046;-87
2023/06/25 08:13:53;;;;;;;8.00;6.90;;;;;;;26.43;56.85;96958.73;112204;1241;22501;-87
2023/06/25 08:16:23;;;;;;;10.10;7.50;;;;;;;26.26;56.63;96958.23;112208;1243;24244;-86
2023/06/25 08:18:52;;;;;;;10.30;7.50;;;;;;;26.04;56.19;96955.88;112199;1243;25401;-86
2023/06/25 08:21:21;;;;;;;10.00;7.30;;;;;;;25.55;55.81;96949.27;112219;1243;31415;-87
2023/06/25 08:23:52;;;;;;;8.20;7.00;;;;;;;24.95;55.89;96952.85;112206;1243;24259;-85
2023/06/25 08:26:24;;;;;;;8.00;6.20;;;;;;;24.75;57.13;96951.90;112195;1243;22614;-85
2023/06/25 08:28:57;;;;;;;8.10;6.90;;;;;;;24.44;57.03;96949.80;112224;1243;22505;-86
2023/06/25 08:31:27;;;;;;;8.30;6.80;;;;;;;24.39;57.54;96949.64;112177;1243;86560;-87
2023/06/25 08:34:00;;;;;;;7.90;6.60;;;;;;;24.63;58.06;96948.13;112211;1243;22482;-86
2023/06/25 08:36:29;;;;;;;11.10;6.70;;;;;;;24.64;58.41;96945.75;112205;1243;24225;-87
2023/06/25 08:38:58;;;;;;;8.50;6.80;;;;;;;24.58;58.17;96940.29;112173;1243;22499;-86
2023/06/25 08:41:28;;;;;;;9.60;6.60;;;;;;;24.07;57.18;96940.79;112241;1243;22639;-86
2023/06/25 08:43:57;;;;;;;8.20;6.80;;;;;;;23.63;57.39;96947.02;112210;1243;22509;-86
2023/06/25 08:46:27;;;;;;;9.10;7.00;;;;;;;23.41;57.68;96949.30;112130;1243;22705;-86
2023/06/25 08:49:01;;;;;;;8.80;6.90;;;;;;;23.24;58.17;96951.08;112203;1243;22495;-86
2023/06/25 08:51:31;;;;;;;8.10;6.50;;;;;;;23.02;58.40;96950.11;112225;1243;30434;-86
2023/06/25 08:54:00;;;;;;;8.60;6.80;;;;;;;22.92;59.21;96944.45;112245;1243;25468;-86
2023/06/25 08:56:29;;;;;;;9.90;6.50;;;;;;;22.93;59.54;96943.09;112287;1243;22572;-85
2023/06/25 08:58:58;;;;;;;9.40;6.80;;;;;;;22.77;59.08;96945.16;112258;1243;22482;-85
2023/06/25 09:01:27;;;;;;;8.00;6.50;;;;;;;22.70;59.89;96948.54;109795;1243;3156523;-86
2023/06/25 09:03:56;;;;;;;12.30;6.60;;;;;;;22.73;61.10;96945.37;112238;1243;22558;-85
2023/06/25 09:06:27;;;;;;;7.00;6.00;;;;;;;22.83;60.82;96948.19;112232;1243;23754;-86
2023/06/25 09:08:57;;;;;;;9.00;6.40;;;;;;;22.93;61.21;96951.36;112237;1243;22502;-85
2023/06/25 09:11:32;;;;;;;8.80;6.00;;;;;;;23.09;60.78;96950.98;112245;1243;22810;-86
2023/06/25 09:14:02;;;;;;;9.90;6.60;;;;;;;23.06;59.85;96945.88;112229;1243;22620;-86
2023/06/25 09:16:32;;;;;;;10.00;6.80;;;;;;;22.90;59.42;96942.48;112220;1243;22501;-86
2023/06/25 09:19:00;;;;;;;;;;;;;;;22.76;59.30;96944.74;112228;1243;22476;-85
2023/06/25 09:21:39;;;;;;;8.40;6.20;;;;;;;22.65;59.00;96945.39;112164;1243;46330;-87
2023/06/25 09:24:22;;;;;;;8.90;6.40;;;;;;;22.53;59.72;96943.85;112197;1243;25270;-86
2023/06/25 09:26:52;;;;;;;8.80;6.30;;;;;;;22.47;60.26;96944.94;112251;1243;22508;-88
2023/06/25 09:29:22;;;;;;;7.80;6.60;;;;;;;22.57;60.67;96940.48;112284;1243;22517;-88
2023/06/25 09:31:51;;;;;;;6.60;5.90;;;;;;;22.70;60.12;96939.26;112439;1243;35918;-89
2023/06/25 09:34:23;;;;;;;8.00;6.50;;;;;;;22.69;60.54;96944.66;112449;1243;22533;-89
2023/06/25 09:36:52;;;;;;;6.80;6.00;;;;;;;22.76;60.66;96937.79;112340;1243;25418;-87
2023/06/25 09:39:21;;;;;;;8.70;6.00;;;;;;;22.98;61.01;96938.11;112347;1243;22534;-87
2023/06/25 09:41:52;;;;;;;7.30;5.50;;;;;;;23.14;60.48;96935.86;112291;1243;22545;-86
2023/06/25 09:44:28;;;;;;;9.00;6.10;;;;;;;23.28;60.21;96935.88;112281;1243;25220;-86
2023/06/25 09:47:02;;;;;;;8.00;6.30;;;;;;;23.09;58.93;96932.28;112222;1243;22520;-85
2023/06/25 09:49:34;;;;;;;7.90;6.10;;;;;;;22.71;57.98;96936.27;112183;1243;22569;-88
2023/06/25 09:52:19;;;;;;;10.20;6.70;;;;;;;22.45;58.65;96942.02;112157;1243;22471;-88
2023/06/25 09:54:51;;;;;;;11.10;7.30;;;;;;;22.51;59.41;96935.77;112115;1243;55215;-87
2023/06/25 09:57:23;;;;;;;7.00;6.30;;;;;;;22.60;59.81;96929.11;112205;1243;22497;-87
2023/06/25 09:59:53;;;;;;;10.40;6.20;;;;;;;22.69;60.11;96928.36;112253;1242;22547;-87
2023/06/25 10:02:22;;;;;;;8.80;5.90;;;;;;;22.65;59.22;96925.07;112226;1243;25280;-87
2023/06/25 10:04:51;;;;;;;9.20;6.50;;;;;;;22.68;59.50;96927.55;112155;1243;72982;-86
2023/06/25 10:07:21;;;;;;;8.40;5.90;;;;;;;22.70;59.09;96924.83;112213;1243;25352;-86
2023/06/25 10:09:55;;;;;;;9.70;6.70;;;;;;;22.71;58.60;96918.75;112249;1243;22512;-86
2023/06/25 10:12:31;;;;;;;9.70;6.10;;;;;;;22.54;57.93;96915.33;112286;1243;22596;-86
2023/06/25 10:15:03;;;;;;;8.20;5.70;;;;;;;22.40;58.35;96916.84;112369;1243;27732;-87
2023/06/25 10:17:34;;;;;;;8.20;5.70;;;;;;;22.38;58.51;96921.34;112386;1243;24251;-87
2023/06/25 10:20:06;;;;;;;5.90;5.20;;;;;;;22.35;57.60;96916.23;112271;1243;22516;-86
2023/06/25 10:22:38;;;;;;;7.00;5.40;;;;;;;22.40;57.07;96914.96;112333;1243;25309;-87
2023/06/25 10:25:09;;;;;;;10.20;6.00;;;;;;;22.56;57.38;96905.33;112269;1243;24069;-86
2023/06/25 10:27:38;;;;;;;7.90;5.30;;;;;;;22.65;58.00;96906.71;112284;1243;22581;-86
2023/06/25 10:30:14;;;;;;;7.30;5.50;;;;;;;22.69;57.85;96904.17;112310;1243;24347;-87
2023/06/25 10:32:43;;;;;;;7.40;5.50;;;;;;;22.81;57.80;96904.40;112300;1243;22546;-87
2023/06/25 10:35:18;;;;;;;7.20;5.80;;;;;;;22.88;57.16;96904.80;112388;1243;22523;-86
2023/06/25 10:37:47;;;;;;;7.30;4.80;;;;;;;22.77;56.20;96900.11;112421;1239;22568;-87
2023/06/25 10:40:15;;;;;;;7.00;5.50;;;;;;;22.60;55.84;96900.11;112429;1243;22493;-86
2023/06/25 10:42:47;;;;;;;8.00;6.00;;;;;;;22.55;56.86;96898.60;112295;1243;22626;-86
2023/06/25 10:45:15;;;;;;;7.30;5.60;;;;;;;22.69;57.68;96902.10;112216;1243;25166;-85
2023/06/25 10:47:44;;;;;;;7.50;5.70;;;;;;;22.75;57.27;96899.99;112278;1243;22506;-86
2023/06/25 10:50:18;;;;;;;6.30;5.30;;;;;;;22.80;57.56;96896.88;112249;1243;22551;-86
2023/06/25 10:52:49;;;;;;;6.20;5.40;;;;;;;22.77;56.44;96893.48;112256;1243;24208;-86
2023/06/25 10:55:18;;;;;;;8.00;5.10;;;;;;;22.70;56.90;96893.78;112173;1233;25426;-86
2023/06/25 10:57:48;;;;;;;;;;;;;;;22.69;57.24;96891.54;112153;1243;24172;-86
2023/06/25 11:00:20;;;;;;;7.10;5.50;;;;;;;22.60;56.27;96888.67;112150;1243;22539;-86
2023/06/25 11:02:52;;;;;;;7.70;5.50;;;;;;;22.49;56.85;96888.87;112200;1243;22502;-87
2023/06/25 11:05:34;;;;;;;;;;;;;;;22.48;56.99;96889.30;112156;1243;37497;-87
2023/06/25 11:08:05;;;;;;;8.20;6.10;;;;;;;22.45;56.89;96889.77;112195;1243;22502;-87
2023/06/25 11:10:36;;;;;;;6.30;5.70;;;;;;;22.42;57.27;96890.17;112209;1243;26562;-87
2023/06/25 11:13:06;;;;;;;6.70;6.00;;;;;;;22.47;58.21;96885.27;112181;1243;22518;-87
2023/06/25 11:15:35;;;;;;;9.20;6.20;;;;;;;22.57;58.58;96881.33;112104;1243;97106;-87
2023/06/25 11:18:06;;;;;;;9.50;6.00;;;;;;;22.64;58.50;96882.13;112193;1243;22497;-87
2023/06/25 11:20:36;;;;;;;7.50;5.80;;;;;;;22.67;58.37;96878.83;112150;1243;25407;-87
2023/06/25 11:23:05;;;;;;;8.00;5.70;;;;;;;22.67;58.07;96877.27;112198;1243;22505;-87
2023/06/25 11:25:34;;;;;;;12.00;6.70;;;;;;;22.71;58.56;96877.44;112142;1243;51326;-87
2023/06/25 11:28:05;;;;;;;7.00;5.60;;;;;;;22.74;58.71;96879.83;112172;1243;22529;-86
2023/06/25 11:30:35;;;;;;;5.90;5.10;;;;;;;22.72;58.55;96879.48;112202;1243;26427;-87
2023/06/25 11:33:12;;;;;;;8.80;6.10;;;;;;;22.70;58.03;96882.66;112224;1243;22501;-87
2023/06/25 11:35:42;;;;;;;6.90;5.60;;;;;;;22.64;58.07;96882.89;112138;1243;59717;-87
2023/06/25 11:38:11;;;;;;;6.50;5.70;;;;;;;22.57;58.06;96884.59;112184;1243;22515;-87